createdAt,value
2019-04-03T00:01:12.499Z,54.80
2019-04-03T00:03:16.467Z,54.70
2019-04-03T00:05:20.411Z,54.80
2019-04-03T00:07:24.303Z,54.80
2019-04-03T00:09:28.395Z,55.00
2019-04-03T00:11:32.265Z,55.00
2019-04-03T00:13:36.174Z,55.20
2019-04-03T00:15:40.039Z,55.30
2019-04-03T00:17:45.637Z,55.40
2019-04-03T00:19:49.389Z,55.40
2019-04-03T00:21:53.398Z,55.30
2019-04-03T00:23:57.262Z,55.60
2019-04-03T00:26:01.121Z,55.40
2019-04-03T00:28:05.075Z,55.40
2019-04-03T00:30:10.653Z,55.70
2019-04-03T00:32:14.661Z,55.90
2019-04-03T00:34:18.620Z,55.90
2019-04-03T00:36:23.314Z,56.00
2019-04-03T00:38:27.823Z,55.90
2019-04-03T00:40:31.664Z,55.90
2019-04-03T00:42:35.587Z,56.00
2019-04-03T00:44:39.475Z,56.20
2019-04-03T00:46:43.339Z,56.30
2019-04-03T00:48:47.237Z,56.30
2019-04-03T00:50:51.098Z,56.10
2019-04-03T00:52:57.081Z,56.10
2019-04-03T00:55:01.036Z,56.20
2019-04-03T00:57:04.957Z,56.30
2019-04-03T00:59:08.895Z,56.30
2019-04-03T01:01:22.794Z,56.30
2019-04-03T01:03:28.173Z,56.50
2019-04-03T01:05:32.198Z,56.70
2019-04-03T01:07:36.078Z,56.70
2019-04-03T01:09:39.950Z,57.00
2019-04-03T01:11:43.856Z,57.00
2019-04-03T01:13:47.895Z,57.10
2019-04-03T01:15:51.950Z,57.30
2019-04-03T01:17:56.039Z,57.20
2019-04-03T01:19:59.903Z,57.40
2019-04-03T01:22:03.760Z,57.40
2019-04-03T01:24:08.441Z,57.50
2019-04-03T01:26:12.450Z,57.50
2019-04-03T01:28:16.301Z,57.80
2019-04-03T01:30:20.123Z,57.90
2019-04-03T01:32:24.016Z,58.10
2019-04-03T01:34:27.881Z,58.20
2019-04-03T01:36:31.754Z,58.50
2019-04-03T01:38:35.649Z,58.60
2019-04-03T01:40:39.511Z,58.60
2019-04-03T01:42:43.367Z,58.80
2019-04-03T01:44:47.403Z,58.70
2019-04-03T01:46:51.304Z,58.80
2019-04-03T01:48:55.164Z,59.10
2019-04-03T01:50:59.600Z,59.20
2019-04-03T01:53:04.136Z,59.00
2019-04-03T01:55:08.066Z,59.10
2019-04-03T01:57:11.917Z,59.20
2019-04-03T01:59:15.822Z,59.40
2019-04-03T02:01:19.670Z,59.40
2019-04-03T02:03:23.545Z,59.50
2019-04-03T02:05:27.384Z,59.50
2019-04-03T02:07:31.250Z,59.40
2019-04-03T02:09:35.078Z,59.40
2019-04-03T02:11:39.454Z,59.30
2019-04-03T02:13:43.711Z,59.50
2019-04-03T02:15:47.618Z,59.60
2019-04-03T02:17:54.157Z,59.60
2019-04-03T02:19:57.115Z,59.70
2019-04-03T02:22:01.284Z,59.90
2019-04-03T02:24:05.212Z,59.90
2019-04-03T02:26:09.117Z,60.00
2019-04-03T02:28:13.097Z,60.10
2019-04-03T02:30:17.328Z,60.10
2019-04-03T02:32:23.215Z,60.30
2019-04-03T02:34:26.863Z,60.40
2019-04-03T02:36:30.867Z,60.80
2019-04-03T02:38:34.774Z,60.80
2019-04-03T02:40:38.547Z,61.20
2019-04-03T02:42:42.892Z,61.40
2019-04-03T02:44:48.450Z,61.70
2019-04-03T02:46:52.302Z,61.70
2019-04-03T02:48:56.234Z,61.70
2019-04-03T02:51:00.593Z,61.70
2019-04-03T02:53:06.871Z,61.70
2019-04-03T02:55:10.747Z,61.60
2019-04-03T02:57:17.748Z,61.80
2019-04-03T02:59:20.308Z,61.90
2019-04-03T03:01:24.289Z,62.00
2019-04-03T03:03:28.134Z,62.20
2019-04-03T03:05:31.989Z,62.30
2019-04-03T03:07:36.570Z,62.30
2019-04-03T03:09:43.440Z,62.30
2019-04-03T03:11:47.283Z,62.30
2019-04-03T03:13:51.704Z,62.20
2019-04-03T03:15:56.462Z,62.20
2019-04-03T03:18:00.481Z,62.40
2019-04-03T03:20:07.840Z,62.50
2019-04-03T03:22:14.704Z,62.60
2019-04-03T03:24:18.515Z,62.60
2019-04-03T03:26:23.265Z,62.50
2019-04-03T03:28:27.601Z,62.30
2019-04-03T03:30:41.345Z,62.50
2019-04-03T03:32:38.560Z,62.70
2019-04-03T03:34:53.851Z,62.80
2019-04-03T03:36:49.051Z,63.10
2019-04-03T03:38:54.273Z,63.00
2019-04-03T03:40:58.834Z,63.20
2019-04-03T03:43:05.061Z,63.20
2019-04-03T03:45:09.695Z,63.10
2019-04-03T03:47:13.771Z,63.20
2019-04-03T03:49:18.455Z,63.10
2019-04-03T03:51:23.107Z,62.90
2019-04-03T03:53:28.404Z,63.10
2019-04-03T03:55:33.236Z,63.10
2019-04-03T03:57:39.679Z,63.20
2019-04-03T03:59:43.869Z,63.40
2019-04-03T04:01:48.789Z,63.60
2019-04-03T04:03:53.037Z,63.20
2019-04-03T04:05:57.139Z,63.40
2019-04-03T04:08:01.147Z,63.50
2019-04-03T04:10:06.486Z,63.50
2019-04-03T04:12:10.748Z,63.50
2019-04-03T04:14:14.997Z,63.60
2019-04-03T04:16:19.651Z,63.50
2019-04-03T04:18:25.064Z,63.50
2019-04-03T04:20:29.410Z,63.60
2019-04-03T04:22:33.863Z,63.90
2019-04-03T04:24:38.223Z,63.90
2019-04-03T04:26:42.861Z,63.70
2019-04-03T04:28:46.693Z,63.70
2019-04-03T04:30:50.615Z,63.70
2019-04-03T04:32:54.450Z,63.60
2019-04-03T04:34:58.290Z,63.50
2019-04-03T04:37:03.061Z,63.30
2019-04-03T04:39:08.950Z,63.50
2019-04-03T04:41:12.844Z,63.30
2019-04-03T04:43:16.680Z,63.20
2019-04-03T04:45:20.561Z,63.10
2019-04-03T04:47:24.645Z,63.30
2019-04-03T04:49:28.848Z,63.10
2019-04-03T04:51:32.848Z,63.20
2019-04-03T04:53:36.911Z,62.80
2019-04-03T04:55:40.975Z,62.60
2019-04-03T04:57:44.866Z,62.60
2019-04-03T04:59:48.712Z,62.70
2019-04-03T05:01:52.708Z,62.60
2019-04-03T05:03:56.681Z,62.40
2019-04-03T05:06:00.547Z,62.20
2019-04-03T05:08:04.794Z,61.90
2019-04-03T05:10:08.598Z,61.90
2019-04-03T05:12:12.696Z,61.60
2019-04-03T05:14:18.007Z,61.30
2019-04-03T05:16:24.540Z,61.00
2019-04-03T05:18:29.309Z,60.70
2019-04-03T05:20:33.503Z,60.30
2019-04-03T05:22:37.385Z,60.20
2019-04-03T05:24:41.230Z,60.00
2019-04-03T05:26:45.239Z,59.70
2019-04-03T05:28:55.845Z,59.60
2019-04-03T05:30:56.090Z,59.60
2019-04-03T05:33:21.660Z,59.80
2019-04-03T05:35:27.036Z,59.40
2019-04-03T05:37:50.332Z,59.40
2019-04-03T05:39:55.545Z,59.30
2019-04-03T05:41:59.768Z,59.30
2019-04-03T05:44:04.228Z,59.20
2019-04-03T05:46:08.370Z,59.10
2019-04-03T05:48:13.577Z,59.00
2019-04-03T05:50:17.917Z,58.70
2019-04-03T05:52:21.938Z,58.60
2019-04-03T05:54:25.904Z,58.50
2019-04-03T05:56:29.778Z,58.10
2019-04-03T05:58:33.661Z,58.10
2019-04-03T06:00:38.180Z,58.10
2019-04-03T06:02:42.699Z,57.80
2019-04-03T06:04:46.876Z,57.70
2019-04-03T06:06:50.848Z,57.60
2019-04-03T06:08:57.723Z,57.50
2019-04-03T06:11:03.532Z,57.50
2019-04-03T06:13:07.138Z,57.40
2019-04-03T06:15:10.980Z,57.20
2019-04-03T06:17:14.818Z,57.50
2019-04-03T06:19:19.272Z,57.30
2019-04-03T06:21:23.128Z,57.10
2019-04-03T06:23:27.061Z,57.10
2019-04-03T06:25:31.374Z,56.90
2019-04-03T06:27:35.713Z,57.10
2019-04-03T06:29:39.606Z,57.00
2019-04-03T06:31:43.497Z,56.90
2019-04-03T06:33:47.631Z,56.90
2019-04-03T06:35:51.579Z,56.80
2019-04-03T06:37:55.495Z,56.50
2019-04-03T06:40:03.301Z,56.60
2019-04-03T06:42:07.046Z,56.50
2019-04-03T06:44:10.938Z,56.20
2019-04-03T06:46:14.783Z,55.90
2019-04-03T06:48:18.661Z,55.60
2019-04-03T06:50:22.531Z,55.30
2019-04-03T06:52:26.365Z,54.80
2019-04-03T06:54:31.920Z,55.00
2019-04-03T06:56:35.881Z,55.20
2019-04-03T06:58:40.321Z,54.70
2019-04-03T07:00:45.274Z,54.80
2019-04-03T07:02:49.909Z,54.60
2019-04-03T07:04:53.813Z,54.50
2019-04-03T07:06:57.677Z,54.10
2019-04-03T07:09:01.606Z,53.60
2019-04-03T07:11:07.125Z,53.60
2019-04-03T07:13:11.023Z,53.40
2019-04-03T07:15:14.990Z,53.50
2019-04-03T07:17:19.322Z,53.40
2019-04-03T07:19:23.526Z,53.20
2019-04-03T07:21:27.761Z,53.30
2019-04-03T07:23:32.010Z,53.40
2019-04-03T07:25:35.962Z,53.50
2019-04-03T07:27:41.771Z,53.20
2019-04-03T07:29:46.876Z,53.30
2019-04-03T07:31:50.866Z,53.20
2019-04-03T07:33:57.409Z,52.90
2019-04-03T07:36:00.402Z,52.90
2019-04-03T07:38:04.254Z,53.30
2019-04-03T07:40:08.416Z,53.00
2019-04-03T07:42:12.251Z,53.20
2019-04-03T07:44:16.543Z,53.00
2019-04-03T07:46:20.427Z,52.60
2019-04-03T07:48:24.340Z,52.30
2019-04-03T07:50:28.220Z,52.50
2019-04-03T07:52:32.095Z,52.40
2019-04-03T07:54:35.965Z,52.50
2019-04-03T07:56:40.181Z,52.40
2019-04-03T07:58:44.415Z,52.30
2019-04-03T08:00:48.384Z,51.80
2019-04-03T08:02:52.391Z,51.90
2019-04-03T08:04:59.451Z,52.10
2019-04-03T08:07:01.935Z,52.30
2019-04-03T08:09:09.781Z,51.60
2019-04-03T08:11:14.964Z,51.90
2019-04-03T08:13:19.414Z,51.90
2019-04-03T08:15:23.275Z,51.90
2019-04-03T08:17:27.143Z,52.00
2019-04-03T08:19:31.451Z,51.80
2019-04-03T08:21:35.429Z,51.20
2019-04-03T08:23:39.346Z,51.20
2019-04-03T08:25:47.228Z,51.20
2019-04-03T08:27:48.734Z,51.30
2019-04-03T08:29:52.646Z,51.30
2019-04-03T08:31:56.510Z,50.80
2019-04-03T08:34:00.640Z,51.20
2019-04-03T08:36:07.216Z,50.80
2019-04-03T08:38:12.407Z,51.00
2019-04-03T08:40:16.186Z,50.90
2019-04-03T08:42:20.098Z,50.90
2019-04-03T08:44:23.933Z,51.00
2019-04-03T08:46:27.813Z,50.80
2019-04-03T08:48:31.826Z,50.80
2019-04-03T08:50:35.772Z,50.90
2019-04-03T08:52:39.873Z,51.10
2019-04-03T08:54:43.984Z,50.70
2019-04-03T08:56:49.000Z,51.10
2019-04-03T08:58:56.506Z,51.10
2019-04-03T09:00:58.852Z,51.10
2019-04-03T09:03:04.082Z,51.00
2019-04-03T09:05:08.642Z,51.10
2019-04-03T09:07:12.489Z,51.10
2019-04-03T09:09:16.406Z,50.50
2019-04-03T09:11:20.319Z,50.50
2019-04-03T09:13:24.336Z,50.30
2019-04-03T09:15:28.692Z,50.60
2019-04-03T09:17:34.051Z,50.20
2019-04-03T09:19:40.613Z,50.00
2019-04-03T09:21:45.350Z,49.40
2019-04-03T09:23:49.446Z,49.50
2019-04-03T09:25:53.282Z,49.20
2019-04-03T09:27:57.240Z,49.20
2019-04-03T09:30:01.092Z,49.10
2019-04-03T09:32:05.140Z,48.70
2019-04-03T09:34:12.214Z,48.50
2019-04-03T09:36:17.516Z,48.20
2019-04-03T09:38:21.379Z,48.00
2019-04-03T09:40:25.375Z,48.00
2019-04-03T09:42:29.306Z,47.30
2019-04-03T09:44:33.204Z,47.20
2019-04-03T09:46:37.052Z,47.20
2019-04-03T09:48:41.268Z,46.60
2019-04-03T09:50:46.793Z,47.40
2019-04-03T09:52:54.144Z,46.50
2019-04-03T09:54:58.042Z,46.30
2019-04-03T09:57:04.857Z,47.20
2019-04-03T09:59:08.205Z,46.60
2019-04-03T10:01:15.744Z,46.60
2019-04-03T10:03:18.137Z,45.30
2019-04-03T10:05:22.384Z,45.40
2019-04-03T10:07:26.564Z,45.10
2019-04-03T10:09:30.525Z,44.90
2019-04-03T10:11:34.603Z,44.90
2019-04-03T10:13:38.526Z,44.80
2019-04-03T10:15:42.590Z,44.30
2019-04-03T10:17:46.486Z,43.90
2019-04-03T10:19:50.415Z,43.90
2019-04-03T10:21:54.286Z,43.70
2019-04-03T10:24:00.007Z,42.90
2019-04-03T10:26:03.847Z,42.40
2019-04-03T10:28:07.900Z,42.50
2019-04-03T10:30:14.528Z,42.30
2019-04-03T10:32:18.431Z,42.20
2019-04-03T10:34:22.454Z,41.80
2019-04-03T10:36:26.341Z,41.20
2019-04-03T10:38:30.703Z,41.50
2019-04-03T10:40:34.568Z,41.50
2019-04-03T10:42:38.466Z,41.20
2019-04-03T10:44:42.478Z,40.80
2019-04-03T10:46:47.795Z,40.60
2019-04-03T10:48:52.133Z,39.90
2019-04-03T10:50:56.289Z,39.90
2019-04-03T10:53:00.454Z,39.80
2019-04-03T10:55:07.038Z,39.50
2019-04-03T10:57:10.875Z,39.80
2019-04-03T10:59:17.938Z,39.70
2019-04-03T11:01:20.582Z,40.20
2019-04-03T11:03:26.356Z,40.30
2019-04-03T11:05:30.802Z,39.80
2019-04-03T11:07:34.730Z,39.80
2019-04-03T11:09:39.038Z,39.90
2019-04-03T11:11:43.764Z,39.70
2019-04-03T11:13:48.007Z,39.90
2019-04-03T11:15:51.869Z,39.80
2019-04-03T11:17:55.815Z,38.70
2019-04-03T11:20:00.125Z,38.10
2019-04-03T11:22:04.077Z,38.00
2019-04-03T11:24:08.130Z,38.10
2019-04-03T11:26:12.250Z,37.90
2019-04-03T11:28:16.198Z,37.70
2019-04-03T11:30:55.509Z,38.00
2019-04-03T11:32:26.117Z,37.80
2019-04-03T11:34:30.048Z,37.80
2019-04-03T11:36:33.912Z,37.20
2019-04-03T11:38:37.716Z,37.40
2019-04-03T11:40:41.806Z,37.20
2019-04-03T11:42:46.042Z,37.00
2019-04-03T11:44:53.039Z,36.90
2019-04-03T11:46:57.039Z,36.20
2019-04-03T11:49:01.136Z,36.60
2019-04-03T11:51:05.371Z,36.40
2019-04-03T11:53:09.363Z,36.40
2019-04-03T11:55:13.726Z,35.40
2019-04-03T11:57:18.027Z,35.40
2019-04-03T11:59:24.055Z,35.10
2019-04-03T12:01:27.481Z,35.40
2019-04-03T12:03:31.369Z,35.00
2019-04-03T12:05:35.263Z,35.20
2019-04-03T12:07:39.121Z,35.30
2019-04-03T12:09:43.055Z,35.50
2019-04-03T12:11:46.955Z,35.10
2019-04-03T12:13:50.824Z,35.30
2019-04-03T12:15:57.991Z,35.20
2019-04-03T12:18:01.151Z,34.00
2019-04-03T12:20:09.192Z,34.40
2019-04-03T12:22:13.080Z,34.20
2019-04-03T12:24:17.096Z,33.30
2019-04-03T12:26:21.368Z,33.80
2019-04-03T12:28:25.227Z,32.90
2019-04-03T12:30:29.317Z,32.70
2019-04-03T12:32:39.295Z,32.90
2019-04-03T12:34:38.781Z,33.30
2019-04-03T12:36:43.479Z,33.60
2019-04-03T12:38:48.307Z,32.00
2019-04-03T12:40:52.345Z,32.20
2019-04-03T12:42:56.443Z,32.50
2019-04-03T12:45:00.384Z,32.80
2019-04-03T12:47:05.628Z,31.90
2019-04-03T12:49:09.776Z,32.20
2019-04-03T12:51:13.617Z,31.20
2019-04-03T12:53:17.465Z,31.10
2019-04-03T12:55:22.998Z,30.90
2019-04-03T12:57:32.383Z,30.00
2019-04-03T12:59:35.386Z,30.30
2019-04-03T13:01:39.275Z,29.60
2019-04-03T13:03:43.108Z,28.80
2019-04-03T13:05:49.026Z,28.20
2019-04-03T13:07:52.630Z,28.40
2019-04-03T13:09:56.827Z,28.60
2019-04-03T13:12:00.822Z,28.40
2019-04-03T13:14:04.893Z,28.30
2019-04-03T13:16:10.272Z,27.80
2019-04-03T13:18:14.291Z,27.50
2019-04-03T13:20:37.648Z,27.70
2019-04-03T13:22:43.170Z,27.10
2019-04-03T13:24:48.292Z,26.80
2019-04-03T13:26:52.913Z,26.80
2019-04-03T13:28:56.922Z,27.10
2019-04-03T13:31:00.889Z,27.00
2019-04-03T13:33:06.583Z,26.20
2019-04-03T13:35:14.591Z,26.50
2019-04-03T13:37:17.777Z,26.50
2019-04-03T13:39:21.958Z,26.50
2019-04-03T13:41:25.931Z,26.50
2019-04-03T13:43:29.782Z,26.00
2019-04-03T13:45:33.716Z,26.80
2019-04-03T13:47:39.734Z,26.30
2019-04-03T13:49:43.686Z,26.10
2019-04-03T13:51:47.585Z,26.20
2019-04-03T13:53:53.046Z,25.80
2019-04-03T13:55:57.211Z,25.80
2019-04-03T13:58:01.225Z,25.50
2019-04-03T14:00:18.720Z,25.80
2019-04-03T14:02:13.210Z,25.90
2019-04-03T14:04:18.112Z,26.20
2019-04-03T14:06:22.003Z,26.30
2019-04-03T14:08:25.842Z,26.50
2019-04-03T14:10:29.779Z,26.80
2019-04-03T14:12:36.545Z,26.70
2019-04-03T14:14:39.590Z,26.60
2019-04-03T14:16:43.538Z,26.70
2019-04-03T14:18:49.525Z,27.10
2019-04-03T14:20:55.321Z,27.30
2019-04-03T14:22:58.739Z,27.40
2019-04-03T14:25:02.976Z,28.00
2019-04-03T14:27:18.851Z,27.90
2019-04-03T14:29:13.499Z,27.60
2019-04-03T14:31:18.652Z,27.70
2019-04-03T14:33:25.090Z,27.70
2019-04-03T14:35:50.364Z,27.20
2019-04-03T14:37:34.061Z,27.00
2019-04-03T14:39:40.117Z,26.70
2019-04-03T14:41:43.457Z,27.20
2019-04-03T14:43:47.487Z,26.60
2019-04-03T14:45:51.646Z,26.40
2019-04-03T14:47:55.978Z,26.50
2019-04-03T14:50:00.631Z,26.40
2019-04-03T14:52:06.345Z,26.50
2019-04-03T14:54:10.227Z,26.40
2019-04-03T14:56:14.076Z,26.30
2019-04-03T14:58:17.961Z,26.70
2019-04-03T15:00:27.390Z,26.80
2019-04-03T15:02:27.411Z,26.70
2019-04-03T15:04:36.073Z,26.70
2019-04-03T15:06:36.822Z,26.70
2019-04-03T15:08:40.717Z,27.10
2019-04-03T15:10:44.607Z,26.20
2019-04-03T15:12:48.934Z,26.10
2019-04-03T15:14:54.504Z,25.70
2019-04-03T15:16:58.407Z,25.80
2019-04-03T15:19:02.705Z,25.50
2019-04-03T15:21:06.738Z,25.50
2019-04-03T15:23:10.629Z,25.50
2019-04-03T15:25:15.824Z,25.10
2019-04-03T15:27:20.203Z,25.00
2019-04-03T15:29:24.041Z,26.00
2019-04-03T15:31:27.966Z,26.60
2019-04-03T15:33:31.855Z,26.90
2019-04-03T15:35:37.124Z,26.80
2019-04-03T15:37:42.407Z,27.10
2019-04-03T15:39:50.645Z,27.90
2019-04-03T15:41:52.345Z,27.90
2019-04-03T15:43:56.696Z,27.90
2019-04-03T15:46:00.835Z,27.70
2019-04-03T15:48:07.566Z,27.90
2019-04-03T15:50:15.290Z,27.70
2019-04-03T15:52:19.315Z,27.80
2019-04-03T15:54:25.812Z,28.20
2019-04-03T15:56:29.006Z,28.40
2019-04-03T15:58:33.023Z,28.40
2019-04-03T16:00:37.079Z,28.70
2019-04-03T16:02:44.371Z,29.20
2019-04-03T16:04:46.585Z,29.60
2019-04-03T16:06:50.633Z,29.90
2019-04-03T16:08:54.655Z,30.10
2019-04-03T16:10:58.928Z,30.50
2019-04-03T16:13:03.264Z,30.90
2019-04-03T16:15:09.228Z,31.30
2019-04-03T16:17:13.649Z,31.20
2019-04-03T16:19:17.614Z,31.50
2019-04-03T16:21:23.754Z,32.10
2019-04-03T16:23:27.902Z,32.00
2019-04-03T16:25:32.540Z,33.40
2019-04-03T16:27:36.505Z,33.50
2019-04-03T16:29:41.336Z,33.50
2019-04-03T16:31:46.064Z,33.40
2019-04-03T16:33:50.124Z,33.80
2019-04-03T16:35:54.077Z,33.40
2019-04-03T16:37:58.030Z,33.80
2019-04-03T16:40:04.158Z,34.10
2019-04-03T16:42:07.441Z,34.30
2019-04-03T16:44:11.402Z,34.10
2019-04-03T16:46:15.680Z,34.40
2019-04-03T16:48:19.716Z,34.70
2019-04-03T16:50:26.146Z,35.10
2019-04-03T16:52:30.331Z,35.40
2019-04-03T16:54:34.406Z,35.60
2019-04-03T16:56:39.479Z,36.00
2019-04-03T16:58:43.425Z,36.20
2019-04-03T17:00:47.268Z,36.50
2019-04-03T17:02:51.231Z,36.80
2019-04-03T17:04:55.170Z,37.20
2019-04-03T17:06:59.369Z,37.60
2019-04-03T17:09:05.525Z,37.70
2019-04-03T17:11:09.921Z,38.20
2019-04-03T17:13:15.014Z,38.30
2019-04-03T17:15:19.155Z,38.60
2019-04-03T17:17:23.055Z,38.70
2019-04-03T17:19:26.935Z,38.90
2019-04-03T17:21:36.817Z,39.00
2019-04-03T17:23:36.389Z,39.20
2019-04-03T17:25:47.617Z,39.10
2019-04-03T17:27:55.124Z,39.20
2019-04-03T17:29:51.328Z,39.40
2019-04-03T17:31:58.141Z,39.30
2019-04-03T17:34:00.753Z,39.40
2019-04-03T17:36:04.706Z,39.40
2019-04-03T17:38:08.696Z,39.70
2019-04-03T17:40:13.361Z,39.90
2019-04-03T17:42:17.383Z,40.10
2019-04-03T17:44:21.282Z,40.50
2019-04-03T17:46:25.191Z,40.80
2019-04-03T17:48:29.054Z,41.00
2019-04-03T17:50:32.940Z,41.50
2019-04-03T17:52:37.107Z,42.00
2019-04-03T17:54:41.107Z,42.40
2019-04-03T17:56:45.097Z,42.50
2019-04-03T17:58:49.021Z,42.80
2019-04-03T18:00:52.951Z,42.90
2019-04-03T18:02:56.949Z,43.20
2019-04-03T18:05:00.844Z,43.30
2019-04-03T18:07:04.851Z,43.30
2019-04-03T18:09:09.494Z,43.50
2019-04-03T18:11:13.873Z,43.80
2019-04-03T18:13:17.794Z,43.70
2019-04-03T18:15:21.736Z,43.70
2019-04-03T18:17:25.806Z,43.70
2019-04-03T18:19:37.355Z,44.10
2019-04-03T18:21:35.351Z,44.00
2019-04-03T18:23:39.235Z,44.10
2019-04-03T18:25:44.123Z,44.20
2019-04-03T18:27:48.020Z,44.50
2019-04-03T18:29:51.982Z,44.40
2019-04-03T18:31:55.910Z,44.50
2019-04-03T18:33:59.838Z,44.60
2019-04-03T18:36:03.926Z,44.60
2019-04-03T18:38:08.543Z,44.70
2019-04-03T18:40:15.068Z,44.40
2019-04-03T18:42:18.632Z,44.50
2019-04-03T18:44:26.024Z,44.70
2019-04-03T18:46:32.408Z,44.70
2019-04-03T18:48:34.053Z,44.90
2019-04-03T18:50:37.949Z,45.10
2019-04-03T18:52:41.837Z,45.00
2019-04-03T18:54:45.699Z,45.10
2019-04-03T18:56:49.661Z,45.20
2019-04-03T18:58:56.375Z,45.50
2019-04-03T19:01:01.775Z,45.20
2019-04-03T19:03:06.482Z,45.10
2019-04-03T19:05:13.970Z,45.10
2019-04-03T19:07:16.847Z,45.20
2019-04-03T19:09:21.354Z,45.20
2019-04-03T19:11:25.615Z,45.20
2019-04-03T19:13:29.639Z,45.30
2019-04-03T19:15:33.653Z,45.30
2019-04-03T19:17:38.145Z,45.50
2019-04-03T19:19:42.041Z,45.50
2019-04-03T19:21:46.067Z,45.70
2019-04-03T19:23:51.987Z,45.90
2019-04-03T19:25:58.113Z,46.10
2019-04-03T19:28:04.014Z,46.00
2019-04-03T19:30:08.879Z,46.00
2019-04-03T19:32:12.830Z,46.40
2019-04-03T19:34:19.900Z,46.70
2019-04-03T19:36:22.476Z,46.50
2019-04-03T19:38:26.383Z,46.70
2019-04-03T19:40:30.486Z,46.50
2019-04-03T19:42:34.562Z,46.40
2019-04-03T19:44:38.436Z,46.30
2019-04-03T19:46:42.472Z,46.50
2019-04-03T19:48:46.687Z,47.70
2019-04-03T19:50:50.844Z,46.90
2019-04-03T19:52:55.125Z,46.80
2019-04-03T19:54:59.520Z,47.10
2019-04-03T19:57:03.655Z,47.50
2019-04-03T19:59:07.886Z,47.70
2019-04-03T20:01:11.823Z,48.20
2019-04-03T20:03:16.022Z,48.10
2019-04-03T20:05:19.867Z,48.50
2019-04-03T20:07:26.759Z,48.90
2019-04-03T20:09:34.926Z,49.10
2019-04-03T20:11:42.935Z,49.40
2019-04-03T20:13:47.269Z,49.80
2019-04-03T20:15:53.793Z,50.10
2019-04-03T20:18:00.542Z,50.30
2019-04-03T20:20:06.301Z,50.50
2019-04-03T20:22:10.267Z,50.50
2019-04-03T20:24:14.283Z,51.50
2019-04-03T20:26:18.154Z,51.00
2019-04-03T20:28:24.166Z,51.10
2019-04-03T20:30:28.046Z,51.20
2019-04-03T20:32:32.027Z,51.20
2019-04-03T20:34:35.884Z,51.20
2019-04-03T20:36:39.922Z,51.40
2019-04-03T20:38:44.703Z,51.40
2019-04-03T20:40:51.594Z,51.60
2019-04-03T20:42:56.863Z,51.80
2019-04-03T20:45:01.007Z,51.50
2019-04-03T20:47:04.981Z,51.30
2019-04-03T20:49:08.803Z,51.40
2019-04-03T20:51:12.685Z,51.30
2019-04-03T20:53:17.173Z,51.30
2019-04-03T20:55:24.764Z,51.30
2019-04-03T20:57:27.282Z,51.10
2019-04-03T20:59:31.387Z,51.20
2019-04-03T21:01:35.517Z,51.20
2019-04-03T21:03:39.993Z,51.30
2019-04-03T21:05:48.781Z,51.40
2019-04-03T21:07:56.406Z,51.50
2019-04-03T21:10:04.832Z,51.60
2019-04-03T21:12:12.465Z,51.70
2019-04-03T21:14:19.885Z,52.20
2019-04-03T21:16:33.245Z,51.50
2019-04-03T21:18:36.219Z,51.70
2019-04-03T21:20:43.672Z,51.60
2019-04-03T21:22:51.736Z,51.40
2019-04-03T21:24:56.609Z,51.70
2019-04-03T21:27:00.581Z,51.60
2019-04-03T21:29:04.494Z,51.50
2019-04-03T21:31:09.468Z,51.40
2019-04-03T21:33:17.252Z,51.60
2019-04-03T21:35:26.230Z,51.70
2019-04-03T21:37:30.053Z,51.50
2019-04-03T21:39:34.082Z,51.50
2019-04-03T21:41:38.237Z,51.40
2019-04-03T21:46:10.562Z,51.60
2019-04-03T21:48:14.589Z,51.50
2019-04-03T21:50:19.359Z,51.60
2019-04-03T21:52:24.273Z,51.70
2019-04-03T21:54:54.835Z,51.50
2019-04-03T21:57:06.924Z,51.40
2019-04-03T21:59:11.405Z,51.70
2019-04-03T22:01:21.006Z,51.50
2019-04-03T22:03:25.038Z,51.50
2019-04-03T22:05:29.039Z,51.70
2019-04-03T22:07:32.962Z,51.60
2019-04-03T22:09:36.862Z,51.70
2019-04-03T22:11:40.773Z,51.70
2019-04-03T22:13:44.616Z,51.80
2019-04-03T22:15:48.519Z,51.70
2019-04-03T22:17:52.948Z,51.90
2019-04-03T22:19:58.447Z,52.00
2019-04-03T22:22:03.080Z,52.00
2019-04-03T22:24:07.767Z,52.00
2019-04-03T22:26:11.738Z,52.10
2019-04-03T22:28:16.060Z,52.10
2019-04-03T22:30:20.007Z,51.80
2019-04-03T22:32:25.418Z,51.90
2019-04-03T22:34:29.917Z,51.70
2019-04-03T22:36:34.457Z,51.60
2019-04-03T22:38:38.417Z,51.70
2019-04-03T22:40:42.349Z,51.50
2019-04-03T22:42:46.370Z,51.60
2019-04-03T22:44:50.377Z,51.50
2019-04-03T22:46:54.693Z,51.60
2019-04-03T22:49:02.877Z,51.50
2019-04-03T22:51:07.453Z,51.40
2019-04-03T22:53:11.373Z,51.60
2019-04-03T22:55:15.486Z,51.90
2019-04-03T22:57:20.196Z,51.80
2019-04-03T22:59:24.462Z,51.90
2019-04-03T23:01:29.854Z,52.10
2019-04-03T23:03:34.464Z,52.20
2019-04-03T23:05:38.394Z,52.20
2019-04-03T23:07:42.271Z,52.30
2019-04-03T23:09:46.321Z,52.50
2019-04-03T23:11:50.213Z,52.70
2019-04-03T23:13:54.373Z,52.80
2019-04-03T23:15:58.601Z,52.80
2019-04-03T23:18:02.474Z,52.90
2019-04-03T23:20:06.791Z,53.10
2019-04-03T23:22:10.662Z,53.30
2019-04-03T23:24:14.543Z,53.40
2019-04-03T23:26:18.492Z,53.60
2019-04-03T23:28:22.343Z,54.30
2019-04-03T23:30:26.815Z,53.90
2019-04-03T23:32:30.697Z,54.10
2019-04-03T23:34:34.570Z,54.00
2019-04-03T23:36:38.429Z,54.10
2019-04-03T23:38:42.270Z,54.40
2019-04-03T23:40:46.197Z,54.20
2019-04-03T23:42:50.075Z,54.00
2019-04-03T23:44:54.001Z,54.10
2019-04-03T23:46:57.858Z,54.20
2019-04-03T23:49:01.739Z,54.20
2019-04-03T23:51:05.647Z,54.60
2019-04-03T23:53:09.509Z,54.60
2019-04-03T23:55:13.428Z,54.70
2019-04-03T23:57:17.276Z,54.80
2019-04-03T23:59:21.146Z,54.80
